Time;durP1;ratioP1;P1;durP2;ratioP2;P2;SDS_P1;SDS_P2;PMS_P1;PMS_P2;Temp;Humidity;BMP_temperature;BMP_pressure;BME280_temperature;BME280_humidity;BME280_pressure;Samples;Min_cycle;Max_cycle;Signal;HPM_P1;HPM_P2
2024/04/09 00:00:32;0.00;0.00;0.62;0.00;0.00;0.62;4.40;3.83;;;28.90;29.40;;;;;;2023627;63;20486;-70
2024/04/09 00:03:17;0.00;0.00;0.62;0.00;0.00;0.62;5.73;4.03;;;28.90;29.40;;;;;;2027654;63;20482;-71
2024/04/09 00:06:07;0.00;0.00;0.62;0.00;0.00;0.62;8.10;4.10;;;28.90;29.30;;;;;;2027573;63;21086;-70
2024/04/09 00:08:55;0.00;0.00;0.62;0.00;0.00;0.62;4.40;3.73;;;28.90;29.30;;;;;;2027289;63;20570;-72
2024/04/09 00:11:43;0.00;0.00;0.62;0.00;0.00;0.62;5.20;3.50;;;28.90;29.40;;;;;;2027623;63;21007;-71
2024/04/09 00:14:30;0.00;0.00;0.62;0.00;0.00;0.62;5.23;3.37;;;28.80;29.30;;;;;;2027680;63;20503;-70
2024/04/09 00:17:19;0.00;0.00;0.62;0.00;0.00;0.62;5.73;3.60;;;28.80;29.30;;;;;;2022610;63;20534;-70
2024/04/09 00:20:09;0.00;0.00;0.62;0.00;0.00;0.62;5.50;4.20;;;28.80;29.30;;;;;;2022543;63;20458;-70
2024/04/09 00:22:54;0.00;0.00;0.62;0.00;0.00;0.62;4.83;3.60;;;28.90;29.40;;;;;;2024003;63;20482;-71
2024/04/09 00:25:41;0.00;0.00;0.62;0.00;0.00;0.62;5.73;4.20;;;28.80;29.30;;;;;;2027534;63;20461;-71
2024/04/09 00:28:26;0.00;0.00;0.62;0.00;0.00;0.62;7.60;3.70;;;28.80;29.90;;;;;;2026818;63;20545;-70
2024/04/09 00:31:14;0.00;0.00;0.62;0.00;0.00;0.62;6.13;3.83;;;28.80;29.30;;;;;;2027642;63;21116;-70
2024/04/09 00:33:59;0.00;0.00;0.62;0.00;0.00;0.62;4.93;3.97;;;28.80;29.30;;;;;;2027644;63;20480;-71
2024/04/09 00:36:45;0.00;0.00;0.62;0.00;0.00;0.62;5.67;3.93;;;28.80;29.30;;;;;;2027592;63;20469;-70
2024/04/09 00:39:33;0.00;0.00;0.62;0.00;0.00;0.62;4.97;3.60;;;28.80;29.30;;;;;;2027378;63;20518;-71
2024/04/09 00:42:18;0.00;0.00;0.62;0.00;0.00;0.62;4.80;3.70;;;28.80;29.30;;;;;;2027672;63;20470;-71
2024/04/09 00:45:04;0.00;0.00;0.62;0.00;0.00;0.62;6.70;4.40;;;28.80;29.30;;;;;;2027653;63;20586;-71
2024/04/09 00:47:53;0.00;0.00;0.62;0.00;0.00;0.62;3.50;2.90;;;28.80;29.30;;;;;;2026875;63;20478;-72
2024/04/09 00:50:41;0.00;0.00;0.62;0.00;0.00;0.62;6.27;4.33;;;28.80;29.30;;;;;;2027749;63;20529;-71
2024/04/09 00:53:28;0.00;0.00;0.62;0.00;0.00;0.62;3.93;3.43;;;28.80;29.30;;;;;;2027583;55;20482;-71
2024/04/09 00:56:14;0.00;0.00;0.62;0.00;0.00;0.62;3.97;3.57;;;28.70;29.30;;;;;;2026876;63;20541;-71
2024/04/09 00:58:59;0.00;0.00;0.62;0.00;0.00;0.62;4.97;3.80;;;28.70;29.30;;;;;;2027466;63;20507;-70
2024/04/09 01:01:46;0.00;0.00;0.62;0.00;0.00;0.62;4.53;3.20;;;28.70;29.30;;;;;;2027464;63;20536;-71
2024/04/09 01:04:33;0.00;0.00;0.62;0.00;0.00;0.62;5.87;3.47;;;28.80;29.30;;;;;;2027486;63;20524;-70
2024/04/09 01:07:18;0.00;0.00;0.62;0.00;0.00;0.62;4.70;3.50;;;28.70;29.80;;;;;;2027720;63;20938;-71
2024/04/09 01:10:05;0.00;0.00;0.62;0.00;0.00;0.62;4.13;3.40;;;28.70;29.30;;;;;;2027953;63;20551;-71
2024/04/09 01:12:49;0.00;0.00;0.62;0.00;0.00;0.62;4.13;3.50;;;28.70;29.30;;;;;;2027926;63;20473;-70
2024/04/09 01:15:34;0.00;0.00;0.62;0.00;0.00;0.62;3.30;2.80;;;28.70;29.30;;;;;;2027671;63;20457;-71
2024/04/09 01:18:18;0.00;0.00;0.62;0.00;0.00;0.62;3.90;3.20;;;28.70;29.30;;;;;;2027012;63;20473;-71
2024/04/09 01:21:06;0.00;0.00;0.62;0.00;0.00;0.62;5.20;3.60;;;28.70;29.30;;;;;;2026992;63;20558;-70
2024/04/09 01:23:53;0.00;0.00;0.62;0.00;0.00;0.62;4.50;3.10;;;28.70;29.30;;;;;;2027583;63;20514;-70
2024/04/09 01:26:38;0.00;0.00;0.62;0.00;0.00;0.62;4.80;3.63;;;28.70;29.30;;;;;;2027582;63;20503;-71
2024/04/09 01:29:26;0.00;0.00;0.62;0.00;0.00;0.62;3.97;3.20;;;28.70;29.30;;;;;;2027383;63;20466;-70
2024/04/09 01:32:12;0.00;0.00;0.62;0.00;0.00;0.62;4.23;3.30;;;28.70;29.30;;;;;;2027532;63;20485;-70
2024/04/09 01:34:58;0.00;0.00;0.62;0.00;0.00;0.62;4.20;3.40;;;28.70;29.30;;;;;;2027457;63;20466;-71
2024/04/09 01:37:42;0.00;0.00;0.62;0.00;0.00;0.62;8.07;4.17;;;28.70;29.30;;;;;;2027266;63;20964;-71
2024/04/09 01:40:30;0.00;0.00;0.62;0.00;0.00;0.62;7.10;3.60;;;28.70;29.30;;;;;;2027449;63;21011;-71
2024/04/09 01:43:15;0.00;0.00;0.62;0.00;0.00;0.62;4.70;3.97;;;28.60;29.30;;;;;;2027003;63;20465;-70
2024/04/09 01:45:59;0.00;0.00;0.62;0.00;0.00;0.62;6.17;3.60;;;28.60;29.30;;;;;;2027221;63;21074;-71
2024/04/09 01:48:44;0.00;0.00;0.62;0.00;0.00;0.62;3.67;2.90;;;28.70;29.30;;;;;;2027496;63;20486;-71
2024/04/09 01:51:28;0.00;0.00;0.62;0.00;0.00;0.62;4.10;3.27;;;28.70;29.30;;;;;;2027340;63;20545;-72
2024/04/09 01:54:13;0.00;0.00;0.62;0.00;0.00;0.62;5.63;3.47;;;28.60;29.30;;;;;;2026429;63;20477;-71
2024/04/09 01:57:00;0.00;0.00;0.62;0.00;0.00;0.62;4.30;2.80;;;28.60;29.30;;;;;;2021745;63;20565;-70
2024/04/09 01:59:45;0.00;0.00;0.62;0.00;0.00;0.62;6.80;4.17;;;28.70;29.40;;;;;;2026406;63;20551;-71
2024/04/09 02:02:30;0.00;0.00;0.62;0.00;0.00;0.62;4.73;3.80;;;28.70;29.40;;;;;;2026912;63;20931;-71
2024/04/09 02:05:15;0.00;0.00;0.62;0.00;0.00;0.62;5.33;3.30;;;28.60;29.30;;;;;;2027145;63;20470;-71
2024/04/09 02:07:59;0.00;0.00;0.62;0.00;0.00;0.62;2.70;2.50;;;28.70;29.40;;;;;;2027218;63;20461;-71
2024/04/09 02:10:44;0.00;0.00;0.62;0.00;0.00;0.62;4.00;3.13;;;28.60;29.30;;;;;;2026396;63;20477;-71
2024/04/09 02:13:31;0.00;0.00;0.62;0.00;0.00;0.62;4.70;3.60;;;28.60;29.30;;;;;;2027344;63;20529;-71
2024/04/09 02:16:16;0.00;0.00;0.62;0.00;0.00;0.62;5.60;3.40;;;28.60;29.30;;;;;;2027467;63;20506;-70
2024/04/09 02:19:02;0.00;0.00;0.62;0.00;0.00;0.62;3.87;3.07;;;28.60;29.90;;;;;;2027398;63;20525;-71
2024/04/09 02:21:48;0.00;0.00;0.62;0.00;0.00;0.62;3.60;3.10;;;28.60;29.50;;;;;;2027263;63;21054;-71
2024/04/09 02:24:33;0.00;0.00;0.62;0.00;0.00;0.62;4.67;3.23;;;28.60;29.30;;;;;;2027290;63;20466;-72
2024/04/09 02:27:21;0.00;0.00;0.62;0.00;0.00;0.62;3.70;3.07;;;28.60;29.30;;;;;;2027090;63;20473;-70
2024/04/09 02:30:09;0.00;0.00;0.62;0.00;0.00;0.62;6.50;3.20;;;28.60;29.30;;;;;;2027330;63;20478;-71
2024/04/09 02:32:54;0.00;0.00;0.62;0.00;0.00;0.62;2.93;2.33;;;28.60;29.40;;;;;;2027376;63;20518;-71
2024/04/09 02:35:42;0.00;0.00;0.62;0.00;0.00;0.62;4.80;3.33;;;28.60;29.40;;;;;;2027242;63;20478;-71
2024/04/09 02:38:30;0.00;0.00;0.62;0.00;0.00;0.62;4.97;3.20;;;28.60;29.40;;;;;;2027293;63;20519;-70
2024/04/09 02:41:17;0.00;0.00;0.62;0.00;0.00;0.62;4.60;3.10;;;28.60;29.40;;;;;;2027461;63;21050;-70
2024/04/09 02:44:01;0.00;0.00;0.62;0.00;0.00;0.62;4.20;3.07;;;28.60;29.30;;;;;;2027108;63;20473;-71
2024/04/09 02:46:49;0.00;0.00;0.62;0.00;0.00;0.62;6.47;3.23;;;28.60;29.40;;;;;;2027374;63;20458;-70
2024/04/09 02:49:34;0.00;0.00;0.62;0.00;0.00;0.62;3.87;3.07;;;28.60;29.30;;;;;;2027159;63;20943;-71
2024/04/09 02:52:19;0.00;0.00;0.62;0.00;0.00;0.62;4.33;3.10;;;28.60;29.30;;;;;;2027531;63;20469;-70
2024/04/09 02:55:06;0.00;0.00;0.62;0.00;0.00;0.62;3.80;3.10;;;28.60;29.30;;;;;;2027653;63;20473;-71
2024/04/09 02:57:51;0.00;0.00;0.62;0.00;0.00;0.62;3.77;2.90;;;28.60;29.30;;;;;;2027512;63;20537;-70
2024/04/09 03:00:38;0.00;0.00;0.62;0.00;0.00;0.62;4.30;3.20;;;28.60;29.30;;;;;;2027565;63;21026;-71
2024/04/09 03:03:25;0.00;0.00;0.62;0.00;0.00;0.62;4.50;3.30;;;28.60;29.30;;;;;;2027077;63;20485;-71
2024/04/09 03:06:12;0.00;0.00;0.62;0.00;0.00;0.62;7.73;3.73;;;28.60;29.30;;;;;;2027471;63;20482;-71
2024/04/09 03:08:56;0.00;0.00;0.62;0.00;0.00;0.62;6.97;3.70;;;28.60;29.30;;;;;;2027705;63;20541;-71
2024/04/09 03:11:41;0.00;0.00;0.62;0.00;0.00;0.62;4.27;2.90;;;28.60;29.30;;;;;;2023578;63;21014;-71
2024/04/09 03:14:25;0.00;0.00;0.62;0.00;0.00;0.62;3.67;3.07;;;28.60;29.30;;;;;;2027383;63;20481;-71
2024/04/09 03:17:10;0.00;0.00;0.62;0.00;0.00;0.62;5.83;2.63;;;28.50;29.30;;;;;;2027567;63;20553;-71
2024/04/09 03:19:58;0.00;0.00;0.62;0.00;0.00;0.62;5.80;2.93;;;28.50;29.30;;;;;;2027524;63;20478;-71
2024/04/09 03:22:42;0.00;0.00;0.62;0.00;0.00;0.62;3.40;3.10;;;28.50;29.30;;;;;;2027875;63;20883;-71
2024/04/09 03:25:27;0.00;0.00;0.62;0.00;0.00;0.62;4.90;3.50;;;28.50;29.30;;;;;;2026929;63;20486;-71
2024/04/09 03:28:12;0.00;0.00;0.62;0.00;0.00;0.62;4.60;3.13;;;28.50;29.30;;;;;;2027470;63;20952;-71
2024/04/09 03:30:57;0.00;0.00;0.62;0.00;0.00;0.62;4.20;2.67;;;28.50;29.30;;;;;;2027205;63;20537;-70
2024/04/09 03:33:42;0.00;0.00;0.62;0.00;0.00;0.62;5.90;2.70;;;28.50;29.30;;;;;;2027200;63;20481;-71
2024/04/09 03:36:29;0.00;0.00;0.62;0.00;0.00;0.62;3.60;2.90;;;28.50;29.30;;;;;;2022620;63;21076;-71
2024/04/09 03:39:15;0.00;0.00;0.62;0.00;0.00;0.62;3.10;2.67;;;28.50;29.30;;;;;;2022707;63;20466;-70
2024/04/09 03:42:00;0.00;0.00;0.62;0.00;0.00;0.62;3.83;2.80;;;28.50;29.30;;;;;;2026981;63;20517;-71
2024/04/09 03:44:45;0.00;0.00;0.62;0.00;0.00;0.62;4.70;2.80;;;28.50;29.30;;;;;;2027565;63;20510;-72
2024/04/09 03:47:30;0.00;0.00;0.62;0.00;0.00;0.62;4.60;3.10;;;28.50;29.30;;;;;;2027573;63;20486;-70
2024/04/09 03:50:15;0.00;0.00;0.62;0.00;0.00;0.62;4.00;2.90;;;28.50;29.40;;;;;;2027453;63;20536;-71
2024/04/09 03:53:02;0.00;0.00;0.62;0.00;0.00;0.62;3.80;2.87;;;28.50;29.40;;;;;;2027528;63;20570;-70
2024/04/09 03:55:54;0.00;0.00;0.62;0.00;0.00;0.62;3.23;2.83;;;28.50;29.40;;;;;;2027131;63;20514;-71
2024/04/09 03:58:40;0.00;0.00;0.62;0.00;0.00;0.62;5.57;2.87;;;28.50;29.90;;;;;;2022666;63;20467;-70
2024/04/09 04:01:25;0.00;0.00;0.62;0.00;0.00;0.62;3.90;3.23;;;28.50;29.40;;;;;;2023041;63;20543;-72
2024/04/09 04:04:10;0.00;0.00;0.62;0.00;0.00;0.62;5.57;3.20;;;28.50;29.40;;;;;;2024529;63;20477;-71
2024/04/09 04:06:54;0.00;0.00;0.62;0.00;0.00;0.62;4.50;3.00;;;28.50;29.40;;;;;;2027935;63;20469;-70
2024/04/09 04:09:41;0.00;0.00;0.62;0.00;0.00;0.62;4.40;3.20;;;28.50;29.40;;;;;;2027736;63;21045;-70
2024/04/09 04:12:26;0.00;0.00;0.62;0.00;0.00;0.62;2.90;2.43;;;28.50;29.40;;;;;;2027604;63;20477;-71
2024/04/09 04:15:11;0.00;0.00;0.62;0.00;0.00;0.62;4.70;2.73;;;28.50;29.40;;;;;;2027575;63;20521;-71
2024/04/09 04:17:56;0.00;0.00;0.62;0.00;0.00;0.62;3.77;3.30;;;28.50;29.40;;;;;;2027110;63;20478;-72
2024/04/09 04:20:40;0.00;0.00;0.62;0.00;0.00;0.62;5.93;2.90;;;28.50;29.40;;;;;;2027769;63;20530;-71
2024/04/09 04:23:25;0.00;0.00;0.62;0.00;0.00;0.62;4.33;3.10;;;28.50;29.40;;;;;;2027663;63;20537;-70
2024/04/09 04:26:14;0.00;0.00;0.62;0.00;0.00;0.62;3.53;2.50;;;28.50;29.40;;;;;;2027498;63;20474;-71
2024/04/09 04:28:59;0.00;0.00;0.62;0.00;0.00;0.62;3.20;2.50;;;28.50;29.40;;;;;;2028175;63;20469;-70
2024/04/09 04:31:44;0.00;0.00;0.62;0.00;0.00;0.62;4.30;3.67;;;28.40;29.30;;;;;;2028478;63;20497;-71
2024/04/09 04:34:29;0.00;0.00;0.62;0.00;0.00;0.62;4.40;3.00;;;28.40;29.90;;;;;;2027639;63;20999;-70
2024/04/09 04:37:13;0.00;0.00;0.62;0.00;0.00;0.62;5.57;3.10;;;28.40;29.90;;;;;;2027717;63;20490;-70
2024/04/09 04:39:58;0.00;0.00;0.62;0.00;0.00;0.62;4.93;2.83;;;28.40;29.30;;;;;;2027606;63;20529;-71
2024/04/09 04:42:45;0.00;0.00;0.62;0.00;0.00;0.62;9.03;3.07;;;28.40;29.30;;;;;;2027387;63;20474;-71
2024/04/09 04:45:31;0.00;0.00;0.62;0.00;0.00;0.62;4.00;3.00;;;28.40;29.40;;;;;;2027540;63;20532;-71
2024/04/09 04:48:18;0.00;0.00;0.62;0.00;0.00;0.62;6.10;3.60;;;28.40;29.30;;;;;;2027362;63;21022;-70
2024/04/09 04:51:04;0.00;0.00;0.62;0.00;0.00;0.62;5.37;3.43;;;28.40;29.30;;;;;;2027581;63;20547;-71
2024/04/09 04:53:48;0.00;0.00;0.62;0.00;0.00;0.62;4.17;3.00;;;28.40;29.30;;;;;;2027143;63;20477;-72
2024/04/09 04:56:34;0.00;0.00;0.62;0.00;0.00;0.62;4.20;3.63;;;28.40;29.30;;;;;;2027350;63;20481;-70
2024/04/09 04:59:21;0.00;0.00;0.62;0.00;0.00;0.62;6.67;4.40;;;28.40;29.30;;;;;;2027264;63;20462;-71
2024/04/09 05:02:06;0.00;0.00;0.62;0.00;0.00;0.62;6.37;4.20;;;28.40;29.40;;;;;;2027541;63;21014;-70
2024/04/09 05:04:53;0.00;0.00;0.62;0.00;0.00;0.62;6.30;4.20;;;28.40;29.30;;;;;;2027187;63;20549;-71
2024/04/09 05:07:38;0.00;0.00;0.62;0.00;0.00;0.62;8.33;4.50;;;28.40;29.30;;;;;;2027586;63;20470;-71
2024/04/09 05:10:23;0.00;0.00;0.62;0.00;0.00;0.62;7.27;4.70;;;28.40;29.30;;;;;;2027386;63;20477;-71
2024/04/09 05:13:08;0.00;0.00;0.62;0.00;0.00;0.62;5.90;4.60;;;28.40;29.30;;;;;;2027231;63;21122;-71
2024/04/09 05:15:55;0.00;0.00;0.62;0.00;0.00;0.62;6.87;4.53;;;28.40;29.30;;;;;;2027575;63;20532;-71
2024/04/09 05:18:40;0.00;0.00;0.62;0.00;0.00;0.62;7.77;4.87;;;28.40;29.30;;;;;;2027405;63;20481;-70
2024/04/09 05:21:25;0.00;0.00;0.62;0.00;0.00;0.62;8.10;5.30;;;28.30;29.30;;;;;;2027366;63;20473;-71
2024/04/09 05:24:12;0.00;0.00;0.62;0.00;0.00;0.62;7.83;4.67;;;28.30;29.30;;;;;;2027068;63;20473;-71
2024/04/09 05:26:57;0.00;0.00;0.62;0.00;0.00;0.62;6.10;4.10;;;28.30;29.30;;;;;;2027277;63;20486;-71
2024/04/09 05:29:41;0.00;0.00;0.62;0.00;0.00;0.62;6.47;4.60;;;28.40;29.30;;;;;;2027419;63;20469;-71
2024/04/09 05:32:29;0.00;0.00;0.62;0.00;0.00;0.62;9.60;5.63;;;28.30;29.30;;;;;;2027252;63;20845;-71
2024/04/09 05:35:14;0.00;0.00;0.62;0.00;0.00;0.62;7.33;5.10;;;28.40;29.30;;;;;;2027256;63;20519;-71
2024/04/09 05:37:59;0.00;0.00;0.62;0.00;0.00;0.62;5.77;4.83;;;28.40;29.30;;;;;;2026882;63;20461;-71
2024/04/09 05:40:43;0.00;0.00;0.62;0.00;0.00;0.62;6.67;4.57;;;28.30;29.30;;;;;;2027404;63;20525;-71
2024/04/09 05:43:28;0.00;0.00;0.62;0.00;0.00;0.62;6.40;4.20;;;28.30;29.30;;;;;;2027281;63;20461;-70
2024/04/09 05:46:13;0.00;0.00;0.62;0.00;0.00;0.62;7.77;5.20;;;28.30;29.30;;;;;;2027445;63;20805;-70
2024/04/09 05:49:00;0.00;0.00;0.62;0.00;0.00;0.62;7.93;5.03;;;28.30;29.20;;;;;;2027281;63;20486;-71
2024/04/09 05:51:45;0.00;0.00;0.62;0.00;0.00;0.62;6.47;4.90;;;28.30;29.20;;;;;;2027457;63;20482;-71
2024/04/09 05:54:29;0.00;0.00;0.62;0.00;0.00;0.62;8.93;4.70;;;28.30;29.20;;;;;;2027568;63;20898;-73
2024/04/09 05:57:14;0.00;0.00;0.62;0.00;0.00;0.62;6.77;5.00;;;28.30;29.20;;;;;;2026780;63;20535;-70
2024/04/09 05:59:59;0.00;0.00;0.62;0.00;0.00;0.62;7.33;4.70;;;28.30;29.20;;;;;;2027556;63;21077;-71
2024/04/09 06:02:45;0.00;0.00;0.62;0.00;0.00;0.62;7.67;4.70;;;28.30;29.50;;;;;;2027499;63;20465;-71
2024/04/09 06:05:32;0.00;0.00;0.62;0.00;0.00;0.62;8.90;5.40;;;28.30;29.20;;;;;;2027473;63;20464;-71
2024/04/09 06:08:17;0.00;0.00;0.62;0.00;0.00;0.62;7.33;4.90;;;28.30;29.20;;;;;;2027243;63;20473;-71
2024/04/09 06:11:03;0.00;0.00;0.62;0.00;0.00;0.62;6.77;5.10;;;28.30;29.20;;;;;;2027326;63;20884;-71
2024/04/09 06:13:52;0.00;0.00;0.62;0.00;0.00;0.62;9.23;5.27;;;28.30;29.20;;;;;;2038295;62;20564;-71
2024/04/09 06:16:36;0.00;0.00;0.62;0.00;0.00;0.62;8.37;5.37;;;28.30;29.20;;;;;;2032169;62;20467;-71
2024/04/09 06:19:22;0.00;0.00;0.62;0.00;0.00;0.62;7.27;5.80;;;28.30;29.20;;;;;;2032381;62;20462;-71
2024/04/09 06:22:10;0.00;0.00;0.62;0.00;0.00;0.62;5.87;5.23;;;28.30;29.10;;;;;;2032395;62;20476;-70
2024/04/09 06:24:54;0.00;0.00;0.62;0.00;0.00;0.62;7.13;5.37;;;28.30;29.10;;;;;;2031854;62;20480;-72
2024/04/09 06:27:40;0.00;0.00;0.62;0.00;0.00;0.62;9.37;5.63;;;28.30;29.10;;;;;;2032814;62;20499;-71
2024/04/09 06:30:25;0.00;0.00;0.62;0.00;0.00;0.62;8.10;4.70;;;28.30;29.00;;;;;;2032908;62;20472;-72
2024/04/09 06:33:10;0.00;0.00;0.62;0.00;0.00;0.62;9.03;5.30;;;28.30;29.00;;;;;;2032632;62;20476;-71
2024/04/09 06:35:54;0.00;0.00;0.62;0.00;0.00;0.62;8.40;4.87;;;28.30;29.00;;;;;;2032855;62;20459;-72
2024/04/09 06:38:41;0.00;0.00;0.62;0.00;0.00;0.62;9.20;5.07;;;28.30;29.00;;;;;;2032705;62;20524;-70
2024/04/09 06:41:26;0.00;0.00;0.62;0.00;0.00;0.62;5.80;4.53;;;28.30;29.00;;;;;;2032444;62;20475;-70
2024/04/09 06:44:10;0.00;0.00;0.62;0.00;0.00;0.62;7.80;4.73;;;28.30;28.90;;;;;;2032880;62;20543;-70
2024/04/09 06:46:55;0.00;0.00;0.62;0.00;0.00;0.62;11.00;5.43;;;28.30;28.90;;;;;;2032420;62;20539;-70
2024/04/09 06:49:43;0.00;0.00;0.62;0.00;0.00;0.62;8.23;5.07;;;28.30;28.90;;;;;;2034921;62;20512;-66
2024/04/09 06:52:28;0.00;0.00;0.62;0.00;0.00;0.62;10.40;4.83;;;28.30;28.90;;;;;;2033050;62;20954;-66
2024/04/09 06:55:16;0.00;0.00;0.62;0.00;0.00;0.62;7.57;5.23;;;28.30;28.90;;;;;;2032516;62;20539;-65
2024/04/09 06:58:00;0.00;0.00;0.62;0.00;0.00;0.62;5.87;4.60;;;28.30;28.90;;;;;;2032553;62;20467;-67
2024/04/09 07:00:47;0.00;0.00;0.62;0.00;0.00;0.62;10.07;5.83;;;28.30;28.90;;;;;;2033494;62;20465;-66
2024/04/09 07:03:32;0.00;0.00;0.62;0.00;0.00;0.62;9.70;4.97;;;28.30;28.90;;;;;;2027809;63;20481;-64
2024/04/09 07:06:16;0.00;0.00;0.62;0.00;0.00;0.62;9.37;5.23;;;28.20;28.80;;;;;;2027998;63;20461;-66
2024/04/09 07:09:03;0.00;0.00;0.62;0.00;0.00;0.62;7.63;4.90;;;28.30;28.90;;;;;;2028892;62;20500;-66
2024/04/09 07:11:51;0.00;0.00;0.62;0.00;0.00;0.62;9.90;5.97;;;28.30;29.40;;;;;;2032872;62;20472;-66
2024/04/09 07:14:35;0.00;0.00;0.62;0.00;0.00;0.62;8.73;5.30;;;28.20;28.80;;;;;;2032931;62;20932;-68
2024/04/09 07:17:20;0.00;0.00;0.62;0.00;0.00;0.62;9.20;5.03;;;28.30;28.90;;;;;;2032003;62;20484;-66
2024/04/09 07:20:08;0.00;0.00;0.62;0.00;0.00;0.62;7.70;5.47;;;28.20;28.80;;;;;;2032566;62;21008;-67
2024/04/09 07:22:53;0.00;0.00;0.62;0.00;0.00;0.62;8.73;5.20;;;28.20;28.80;;;;;;2033093;62;20463;-65
2024/04/09 07:25:38;0.00;0.00;0.62;0.00;0.00;0.62;7.87;5.23;;;28.30;28.90;;;;;;2031764;62;20531;-66
2024/04/09 07:28:25;0.00;0.00;0.62;0.00;0.00;0.62;7.63;3.90;;;28.30;28.90;;;;;;2032703;62;20483;-67
2024/04/09 07:31:10;0.00;0.00;0.62;0.00;0.00;0.62;9.43;4.80;;;28.20;28.90;;;;;;2032784;62;20548;-66
2024/04/09 07:33:55;0.00;0.00;0.62;0.00;0.00;0.62;8.37;5.27;;;28.30;28.90;;;;;;2032565;62;21095;-67
2024/04/09 07:36:39;0.00;0.00;0.62;0.00;0.00;0.62;7.83;5.57;;;28.30;28.90;;;;;;2032921;62;20519;-67
2024/04/09 07:39:24;0.00;0.00;0.62;0.00;0.00;0.62;6.37;5.10;;;28.20;28.80;;;;;;2032549;62;20598;-66
2024/04/09 07:42:09;0.00;0.00;0.62;0.00;0.00;0.62;9.90;5.17;;;28.20;28.80;;;;;;2032544;62;20475;-67
2024/04/09 07:44:57;0.00;0.00;0.62;0.00;0.00;0.62;6.00;4.73;;;28.20;28.80;;;;;;2033075;62;20456;-66
2024/04/09 07:47:42;0.00;0.00;0.62;0.00;0.00;0.62;8.13;4.50;;;28.20;28.80;;;;;;2032104;62;21283;-67
2024/04/09 07:50:27;0.00;0.00;0.62;0.00;0.00;0.62;6.70;5.10;;;28.20;28.80;;;;;;2033092;62;20464;-66
2024/04/09 07:53:11;0.00;0.00;0.62;0.00;0.00;0.62;8.77;5.20;;;28.20;28.80;;;;;;2032592;62;20480;-66
2024/04/09 07:55:57;0.00;0.00;0.62;0.00;0.00;0.62;8.40;4.33;;;28.20;28.80;;;;;;2032588;62;20456;-67
2024/04/09 07:58:41;0.00;0.00;0.62;0.00;0.00;0.62;7.50;4.80;;;28.20;28.80;;;;;;2032728;62;20467;-66
2024/04/09 08:01:29;0.00;0.00;0.62;0.00;0.00;0.62;7.70;4.90;;;28.20;28.80;;;;;;2032430;62;20550;-66
2024/04/09 08:04:13;0.00;0.00;0.62;0.00;0.00;0.62;5.37;3.97;;;28.20;28.90;;;;;;2032566;62;20540;-66
2024/04/09 08:06:58;0.00;0.00;0.62;0.00;0.00;0.62;6.50;4.13;;;28.20;28.90;;;;;;2032804;62;20536;-66
2024/04/09 08:09:43;0.00;0.00;0.62;0.00;0.00;0.62;6.63;4.43;;;28.20;28.90;;;;;;2032198;62;20540;-65
2024/04/09 08:12:28;0.00;0.00;0.62;0.00;0.00;0.62;8.60;4.67;;;28.20;28.90;;;;;;2032809;62;20589;-66
2024/04/09 08:15:13;0.00;0.00;0.62;0.00;0.00;0.62;5.03;3.83;;;28.20;28.90;;;;;;2032404;62;20962;-66
2024/04/09 08:18:00;0.00;0.00;0.62;0.00;0.00;0.62;5.67;4.10;;;28.20;28.90;;;;;;2032358;62;20464;-66
2024/04/09 08:20:45;0.00;0.00;0.62;0.00;0.00;0.62;9.40;4.83;;;28.20;28.90;;;;;;2032959;62;20500;-66
2024/04/09 08:23:30;0.00;0.00;0.62;0.00;0.00;0.62;6.63;4.10;;;28.20;28.90;;;;;;2032312;62;20869;-66
2024/04/09 08:26:16;0.00;0.00;0.62;0.00;0.00;0.62;6.67;4.10;;;28.20;28.90;;;;;;2032365;62;20468;-66
2024/04/09 08:29:04;0.00;0.00;0.62;0.00;0.00;0.62;9.43;4.10;;;28.20;28.90;;;;;;2032216;62;20484;-65
2024/04/09 08:31:50;0.00;0.00;0.62;0.00;0.00;0.62;6.63;4.70;;;28.20;28.90;;;;;;2031699;62;20548;-65
2024/04/09 08:34:37;0.00;0.00;0.62;0.00;0.00;0.62;5.17;3.83;;;28.20;28.80;;;;;;2032871;62;20460;-67
2024/04/09 08:37:22;0.00;0.00;0.62;0.00;0.00;0.62;9.87;4.57;;;28.20;28.90;;;;;;2032553;62;20497;-67
2024/04/09 08:40:11;0.00;0.00;0.62;0.00;0.00;0.62;7.47;3.93;;;28.20;28.90;;;;;;2032813;62;20477;-67
2024/04/09 08:42:59;0.00;0.00;0.62;0.00;0.00;0.62;6.17;3.73;;;28.20;28.90;;;;;;2032928;62;20543;-66
2024/04/09 08:45:45;0.00;0.00;0.62;0.00;0.00;0.62;5.70;4.67;;;28.20;28.90;;;;;;2032527;62;20461;-66
2024/04/09 08:48:30;0.00;0.00;0.62;0.00;0.00;0.62;5.70;4.00;;;28.20;28.90;;;;;;2031729;62;20472;-67
2024/04/09 08:51:18;0.00;0.00;0.62;0.00;0.00;0.62;7.23;4.17;;;28.20;28.90;;;;;;2032372;62;20468;-66
2024/04/09 08:54:04;0.00;0.00;0.62;0.00;0.00;0.62;6.07;3.87;;;28.20;28.90;;;;;;2032336;62;21210;-66
2024/04/09 08:56:49;0.00;0.00;0.62;0.00;0.00;0.62;6.37;3.60;;;28.20;28.90;;;;;;2032500;62;20464;-66
2024/04/09 08:59:35;0.00;0.00;0.62;0.00;0.00;0.62;4.23;3.00;;;28.20;28.90;;;;;;2032277;62;20934;-66
2024/04/09 09:02:20;0.00;0.00;0.62;0.00;0.00;0.62;4.40;3.40;;;28.20;28.90;;;;;;2032599;62;20460;-65
2024/04/09 09:05:15;0.00;0.00;0.62;0.00;0.00;0.62;4.63;3.37;;;28.20;28.90;;;;;;2032946;62;20476;-66
2024/04/09 09:08:05;0.00;0.00;0.62;0.00;0.00;0.62;5.00;3.30;;;28.20;29.40;;;;;;2032180;62;20970;-66
2024/04/09 09:10:54;0.00;0.00;0.62;0.00;0.00;0.62;4.47;3.30;;;28.20;28.90;;;;;;2032314;62;20469;-65
2024/04/09 09:13:38;0.00;0.00;0.62;0.00;0.00;0.62;5.57;3.53;;;28.20;28.90;;;;;;2033179;62;20865;-66
2024/04/09 09:16:23;0.00;0.00;0.62;0.00;0.00;0.62;4.20;3.13;;;28.20;28.90;;;;;;2032251;62;20560;-66
2024/04/09 09:19:08;0.00;0.00;0.62;0.00;0.00;0.62;5.17;3.40;;;28.20;28.90;;;;;;2032579;62;20468;-66
2024/04/09 09:21:52;0.00;0.00;0.62;0.00;0.00;0.62;5.20;2.97;;;28.20;28.90;;;;;;2032644;62;20480;-66
2024/04/09 09:24:40;0.00;0.00;0.62;0.00;0.00;0.62;5.63;3.53;;;28.20;28.90;;;;;;2035734;62;20531;-66
2024/04/09 09:27:26;0.00;0.00;0.62;0.00;0.00;0.62;5.40;3.70;;;28.20;28.90;;;;;;2033133;62;20512;-65
2024/04/09 09:30:11;0.00;0.00;0.62;0.00;0.00;0.62;5.70;3.67;;;28.20;28.90;;;;;;2032579;62;20472;-66
2024/04/09 09:32:58;0.00;0.00;0.62;0.00;0.00;0.62;5.33;3.37;;;28.20;28.90;;;;;;2032667;62;20477;-65
2024/04/09 09:35:48;0.00;0.00;0.62;0.00;0.00;0.62;3.90;2.93;;;28.20;28.90;;;;;;2033084;62;20464;-66
2024/04/09 09:38:34;0.00;0.00;0.62;0.00;0.00;0.62;5.30;3.80;;;28.20;29.00;;;;;;2031599;62;20538;-66
2024/04/09 09:41:22;0.00;0.00;0.62;0.00;0.00;0.62;5.63;3.20;;;28.20;29.00;;;;;;2032850;62;20516;-66
2024/04/09 09:44:08;0.00;0.00;0.62;0.00;0.00;0.62;4.47;2.83;;;28.20;29.00;;;;;;2032591;62;20549;-66
2024/04/09 09:46:54;0.00;0.00;0.62;0.00;0.00;0.62;4.53;3.33;;;28.20;29.00;;;;;;2032276;62;20472;-66
2024/04/09 09:49:39;0.00;0.00;0.62;0.00;0.00;0.62;4.40;3.50;;;28.20;29.00;;;;;;2033137;62;20493;-67
2024/04/09 09:52:23;0.00;0.00;0.62;0.00;0.00;0.62;4.10;3.33;;;28.20;29.00;;;;;;2032650;62;20977;-66
2024/04/09 09:55:09;0.00;0.00;0.62;0.00;0.00;0.62;3.80;3.40;;;28.20;29.00;;;;;;2032252;62;20555;-65
2024/04/09 09:57:59;0.00;0.00;0.62;0.00;0.00;0.62;4.83;3.47;;;28.20;29.50;;;;;;2032076;62;20476;-66
2024/04/09 10:00:45;0.00;0.00;0.62;0.00;0.00;0.62;7.13;4.43;;;28.20;29.00;;;;;;2032579;62;20475;-66
2024/04/09 10:03:30;0.00;0.00;0.62;0.00;0.00;0.62;5.17;4.00;;;28.20;29.00;;;;;;2033056;62;20885;-66
2024/04/09 10:06:15;0.00;0.00;0.62;0.00;0.00;0.62;4.23;3.63;;;28.20;29.00;;;;;;2032596;62;20579;-66
2024/04/09 10:09:05;0.00;0.00;0.62;0.00;0.00;0.62;4.50;3.50;;;28.20;29.00;;;;;;2032535;62;20509;-66
2024/04/09 10:11:50;0.00;0.00;0.62;0.00;0.00;0.62;4.50;4.10;;;28.20;29.50;;;;;;2032914;62;20527;-67
2024/04/09 10:14:41;0.00;0.00;0.62;0.00;0.00;0.62;3.80;3.47;;;28.20;29.00;;;;;;2032695;62;20511;-66
2024/04/09 10:17:49;0.00;0.00;0.62;0.00;0.00;0.62;5.47;4.20;;;28.20;29.00;;;;;;2032726;62;20476;-66
2024/04/09 10:20:37;0.00;0.00;0.62;0.00;0.00;0.62;5.13;4.33;;;28.30;29.10;;;;;;2033200;62;20460;-67
2024/04/09 10:23:22;0.00;0.00;0.62;0.00;0.00;0.62;5.30;3.87;;;28.20;29.00;;;;;;2027582;63;20562;-66
2024/04/09 10:26:10;0.00;0.00;0.62;0.00;0.00;0.62;5.47;4.00;;;28.20;29.00;;;;;;2027559;63;20533;-66
2024/04/09 10:29:02;0.00;0.00;0.62;0.00;0.00;0.62;5.70;4.30;;;28.20;29.00;;;;;;2029078;62;20480;-65
2024/04/09 10:31:50;0.00;0.00;0.62;0.00;0.00;0.62;4.93;4.43;;;28.20;29.00;;;;;;2032802;62;20530;-66
2024/04/09 10:34:35;0.00;0.00;0.62;0.00;0.00;0.62;5.50;5.00;;;28.20;29.10;;;;;;2033035;62;20983;-66
2024/04/09 10:37:19;0.00;0.00;0.62;0.00;0.00;0.62;4.67;4.07;;;28.20;29.00;;;;;;2032555;62;20904;-66
2024/04/09 10:40:06;0.00;0.00;0.62;0.00;0.00;0.62;4.80;3.50;;;28.30;29.10;;;;;;2032829;62;20484;-66
2024/04/09 10:42:52;0.00;0.00;0.62;0.00;0.00;0.62;4.47;4.07;;;28.20;29.00;;;;;;2033030;62;20482;-66
2024/04/09 10:45:37;0.00;0.00;0.62;0.00;0.00;0.62;4.13;3.73;;;28.20;29.00;;;;;;2027470;63;20540;-66
2024/04/09 10:48:24;0.00;0.00;0.62;0.00;0.00;0.62;5.70;5.00;;;28.30;29.10;;;;;;2027485;63;20481;-66
2024/04/09 10:51:09;0.00;0.00;0.62;0.00;0.00;0.62;5.07;4.00;;;28.20;29.10;;;;;;2029288;62;20543;-65
2024/04/09 10:54:01;0.00;0.00;0.62;0.00;0.00;0.62;5.53;4.50;;;28.30;29.10;;;;;;2032387;62;20943;-66